sensor_id;sensor_type;location;lat;lon;timestamp;temperature;humidity
74359;DHT22;62792;46.236;6.040;2023-07-13T00:01:15;25.60;64.60
74359;DHT22;62792;46.236;6.040;2023-07-13T00:06:20;25.90;63.90
74359;DHT22;62792;46.236;6.040;2023-07-13T00:11:23;25.90;63.60
74359;DHT22;62792;46.236;6.040;2023-07-13T00:16:26;26.10;63.20
74359;DHT22;62792;46.236;6.040;2023-07-13T00:21:31;26.00;63.30
74359;DHT22;62792;46.236;6.040;2023-07-13T00:26:34;26.10;63.20
74359;DHT22;62792;46.236;6.040;2023-07-13T00:31:38;26.00;63.30
74359;DHT22;62792;46.236;6.040;2023-07-13T00:36:42;26.30;63.10
74359;DHT22;62792;46.236;6.040;2023-07-13T00:41:45;26.00;63.00
74359;DHT22;62792;46.236;6.040;2023-07-13T00:46:48;25.70;63.70
74359;DHT22;62792;46.236;6.040;2023-07-13T00:51:53;25.60;63.80
74359;DHT22;62792;46.236;6.040;2023-07-13T00:56:59;25.70;63.90
74359;DHT22;62792;46.236;6.040;2023-07-13T01:02:03;25.90;63.70
74359;DHT22;62792;46.236;6.040;2023-07-13T01:07:08;25.90;63.60
74359;DHT22;62792;46.236;6.040;2023-07-13T01:12:11;26.30;63.30
74359;DHT22;62792;46.236;6.040;2023-07-13T01:17:15;25.50;64.80
74359;DHT22;62792;46.236;6.040;2023-07-13T01:22:19;25.60;64.40
74359;DHT22;62792;46.236;6.040;2023-07-13T01:27:26;25.60;64.40
74359;DHT22;62792;46.236;6.040;2023-07-13T01:32:30;25.50;64.30
74359;DHT22;62792;46.236;6.040;2023-07-13T01:37:35;25.60;64.20
74359;DHT22;62792;46.236;6.040;2023-07-13T01:42:38;25.80;63.70
74359;DHT22;62792;46.236;6.040;2023-07-13T01:47:41;25.80;63.70
74359;DHT22;62792;46.236;6.040;2023-07-13T01:52:46;25.50;64.30
74359;DHT22;62792;46.236;6.040;2023-07-13T01:57:49;25.60;63.80
74359;DHT22;62792;46.236;6.040;2023-07-13T02:02:52;26.40;61.80
74359;DHT22;62792;46.236;6.040;2023-07-13T02:07:57;26.40;62.50
74359;DHT22;62792;46.236;6.040;2023-07-13T02:13:00;26.70;62.60
74359;DHT22;62792;46.236;6.040;2023-07-13T02:18:03;26.40;63.30
74359;DHT22;62792;46.236;6.040;2023-07-13T02:23:07;26.40;63.30
74359;DHT22;62792;46.236;6.040;2023-07-13T02:28:10;26.30;64.40
74359;DHT22;62792;46.236;6.040;2023-07-13T02:33:13;26.40;63.30
74359;DHT22;62792;46.236;6.040;2023-07-13T02:38:18;26.30;64.30
74359;DHT22;62792;46.236;6.040;2023-07-13T02:43:21;26.30;64.40
74359;DHT22;62792;46.236;6.040;2023-07-13T02:48:24;26.40;63.00
74359;DHT22;62792;46.236;6.040;2023-07-13T02:53:28;26.30;64.10
74359;DHT22;62792;46.236;6.040;2023-07-13T02:58:31;25.90;64.90
74359;DHT22;62792;46.236;6.040;2023-07-13T03:03:37;25.90;65.00
74359;DHT22;62792;46.236;6.040;2023-07-13T03:08:42;25.70;65.10
74359;DHT22;62792;46.236;6.040;2023-07-13T03:13:45;25.70;65.80
74359;DHT22;62792;46.236;6.040;2023-07-13T03:18:49;25.90;65.10
74359;DHT22;62792;46.236;6.040;2023-07-13T03:23:54;26.00;64.70
74359;DHT22;62792;46.236;6.040;2023-07-13T03:28:56;25.90;64.40
74359;DHT22;62792;46.236;6.040;2023-07-13T03:33:59;26.00;65.10
74359;DHT22;62792;46.236;6.040;2023-07-13T03:39:04;25.90;66.00
74359;DHT22;62792;46.236;6.040;2023-07-13T03:44:10;25.70;66.40
74359;DHT22;62792;46.236;6.040;2023-07-13T03:49:13;26.30;64.90
74359;DHT22;62792;46.236;6.040;2023-07-13T03:54:18;25.80;66.30
74359;DHT22;62792;46.236;6.040;2023-07-13T03:59:20;25.60;67.40
74359;DHT22;62792;46.236;6.040;2023-07-13T04:04:23;24.80;69.20
74359;DHT22;62792;46.236;6.040;2023-07-13T04:09:28;24.50;68.80
74359;DHT22;62792;46.236;6.040;2023-07-13T04:14:31;25.20;67.20
74359;DHT22;62792;46.236;6.040;2023-07-13T04:19:34;25.70;66.60
74359;DHT22;62792;46.236;6.040;2023-07-13T04:24:38;25.20;67.80
74359;DHT22;62792;46.236;6.040;2023-07-13T04:29:42;24.70;69.50
74359;DHT22;62792;46.236;6.040;2023-07-13T04:34:45;24.90;68.80
74359;DHT22;62792;46.236;6.040;2023-07-13T04:39:49;25.30;67.10
74359;DHT22;62792;46.236;6.040;2023-07-13T04:44:53;25.40;67.00
74359;DHT22;62792;46.236;6.040;2023-07-13T04:49:56;25.50;67.30
74359;DHT22;62792;46.236;6.040;2023-07-13T04:55:00;25.50;68.90
74359;DHT22;62792;46.236;6.040;2023-07-13T05:00:04;25.50;68.80
74359;DHT22;62792;46.236;6.040;2023-07-13T05:05:08;24.50;69.60
74359;DHT22;62792;46.236;6.040;2023-07-13T05:10:12;24.90;68.90
74359;DHT22;62792;46.236;6.040;2023-07-13T05:15:15;25.20;68.30
74359;DHT22;62792;46.236;6.040;2023-07-13T05:20:22;25.30;68.00
74359;DHT22;62792;46.236;6.040;2023-07-13T05:25:26;26.00;67.90
74359;DHT22;62792;46.236;6.040;2023-07-13T05:30:29;25.80;71.10
74359;DHT22;62792;46.236;6.040;2023-07-13T05:35:32;25.70;69.80
74359;DHT22;62792;46.236;6.040;2023-07-13T05:40:36;25.30;70.60
74359;DHT22;62792;46.236;6.040;2023-07-13T05:45:39;24.90;71.40
74359;DHT22;62792;46.236;6.040;2023-07-13T05:50:42;24.60;71.20
74359;DHT22;62792;46.236;6.040;2023-07-13T05:55:47;25.10;69.40
74359;DHT22;62792;46.236;6.040;2023-07-13T06:00:58;25.00;69.40
74359;DHT22;62792;46.236;6.040;2023-07-13T06:06:02;24.70;69.80
74359;DHT22;62792;46.236;6.040;2023-07-13T06:11:07;24.00;71.90
74359;DHT22;62792;46.236;6.040;2023-07-13T06:16:13;24.20;72.10
74359;DHT22;62792;46.236;6.040;2023-07-13T06:21:17;23.40;75.70
74359;DHT22;62792;46.236;6.040;2023-07-13T06:26:23;23.40;75.10
74359;DHT22;62792;46.236;6.040;2023-07-13T06:31:25;23.00;74.30
74359;DHT22;62792;46.236;6.040;2023-07-13T06:36:28;22.90;74.60
74359;DHT22;62792;46.236;6.040;2023-07-13T06:41:33;22.70;75.10
74359;DHT22;62792;46.236;6.040;2023-07-13T06:46:36;22.90;75.00
74359;DHT22;62792;46.236;6.040;2023-07-13T06:51:39;22.80;74.80
74359;DHT22;62792;46.236;6.040;2023-07-13T06:56:43;23.00;74.30
74359;DHT22;62792;46.236;6.040;2023-07-13T07:01:46;23.10;74.60
74359;DHT22;62792;46.236;6.040;2023-07-13T07:06:49;23.00;74.40
74359;DHT22;62792;46.236;6.040;2023-07-13T07:11:53;23.90;72.00
74359;DHT22;62792;46.236;6.040;2023-07-13T07:17:05;24.60;69.70
74359;DHT22;62792;46.236;6.040;2023-07-13T07:22:08;24.70;69.10
74359;DHT22;62792;46.236;6.040;2023-07-13T07:27:12;25.50;67.70
74359;DHT22;62792;46.236;6.040;2023-07-13T07:32:18;26.00;66.60
74359;DHT22;62792;46.236;6.040;2023-07-13T07:37:24;26.00;66.90
74359;DHT22;62792;46.236;6.040;2023-07-13T07:42:48;25.90;66.90
74359;DHT22;62792;46.236;6.040;2023-07-13T07:47:51;25.90;67.50
74359;DHT22;62792;46.236;6.040;2023-07-13T07:52:56;25.60;68.00
74359;DHT22;62792;46.236;6.040;2023-07-13T07:58:01;25.70;67.40
74359;DHT22;62792;46.236;6.040;2023-07-13T08:03:06;25.80;67.20
74359;DHT22;62792;46.236;6.040;2023-07-13T08:08:12;26.20;66.00
74359;DHT22;62792;46.236;6.040;2023-07-13T08:13:17;25.50;67.30
74359;DHT22;62792;46.236;6.040;2023-07-13T08:18:20;26.10;66.30
74359;DHT22;62792;46.236;6.040;2023-07-13T08:23:23;26.50;64.20
74359;DHT22;62792;46.236;6.040;2023-07-13T08:28:28;25.90;66.70
74359;DHT22;62792;46.236;6.040;2023-07-13T08:33:31;26.40;64.60
74359;DHT22;62792;46.236;6.040;2023-07-13T08:38:35;26.50;63.90
74359;DHT22;62792;46.236;6.040;2023-07-13T08:43:39;26.50;63.00
74359;DHT22;62792;46.236;6.040;2023-07-13T08:48:44;26.50;63.00
74359;DHT22;62792;46.236;6.040;2023-07-13T08:53:49;26.50;62.20
74359;DHT22;62792;46.236;6.040;2023-07-13T08:58:57;26.20;63.60
74359;DHT22;62792;46.236;6.040;2023-07-13T09:04:03;26.40;62.50
74359;DHT22;62792;46.236;6.040;2023-07-13T09:09:12;26.50;61.90
74359;DHT22;62792;46.236;6.040;2023-07-13T09:14:39;26.30;62.90
74359;DHT22;62792;46.236;6.040;2023-07-13T09:19:46;26.60;61.10
74359;DHT22;62792;46.236;6.040;2023-07-13T09:24:57;26.50;60.60
74359;DHT22;62792;46.236;6.040;2023-07-13T09:30:11;26.80;59.30
74359;DHT22;62792;46.236;6.040;2023-07-13T09:35:26;26.20;61.30
74359;DHT22;62792;46.236;6.040;2023-07-13T09:40:32;25.60;61.90
74359;DHT22;62792;46.236;6.040;2023-07-13T09:45:42;26.40;59.00
74359;DHT22;62792;46.236;6.040;2023-07-13T09:50:48;25.60;60.70
74359;DHT22;62792;46.236;6.040;2023-07-13T09:55:52;26.40;58.80
74359;DHT22;62792;46.236;6.040;2023-07-13T10:00:56;26.40;57.40
74359;DHT22;62792;46.236;6.040;2023-07-13T10:06:01;25.80;58.60
74359;DHT22;62792;46.236;6.040;2023-07-13T10:11:23;26.50;57.60
74359;DHT22;62792;46.236;6.040;2023-07-13T10:16:32;27.00;56.30
74359;DHT22;62792;46.236;6.040;2023-07-13T10:21:36;27.00;56.30
74359;DHT22;62792;46.236;6.040;2023-07-13T10:26:45;27.00;55.70
74359;DHT22;62792;46.236;6.040;2023-07-13T10:31:51;27.20;55.20
74359;DHT22;62792;46.236;6.040;2023-07-13T10:36:54;27.10;55.60
74359;DHT22;62792;46.236;6.040;2023-07-13T10:41:58;27.30;54.40
74359;DHT22;62792;46.236;6.040;2023-07-13T10:47:06;27.30;54.30
74359;DHT22;62792;46.236;6.040;2023-07-13T10:57:42;26.40;56.30
74359;DHT22;62792;46.236;6.040;2023-07-13T11:02:56;27.10;55.40
74359;DHT22;62792;46.236;6.040;2023-07-13T11:08:03;27.50;54.90
74359;DHT22;62792;46.236;6.040;2023-07-13T11:18:40;27.80;54.90
74359;DHT22;62792;46.236;6.040;2023-07-13T11:23:44;27.80;54.70
74359;DHT22;62792;46.236;6.040;2023-07-13T11:28:48;27.70;54.50
74359;DHT22;62792;46.236;6.040;2023-07-13T11:33:55;27.80;53.70
74359;DHT22;62792;46.236;6.040;2023-07-13T11:39:01;26.80;54.40
74359;DHT22;62792;46.236;6.040;2023-07-13T11:44:06;27.10;54.40
74359;DHT22;62792;46.236;6.040;2023-07-13T11:49:16;26.80;54.20
74359;DHT22;62792;46.236;6.040;2023-07-13T11:54:24;26.50;54.20
74359;DHT22;62792;46.236;6.040;2023-07-13T11:59:29;26.50;53.60
74359;DHT22;62792;46.236;6.040;2023-07-13T12:04:34;26.60;54.10
74359;DHT22;62792;46.236;6.040;2023-07-13T12:09:37;26.60;54.30
74359;DHT22;62792;46.236;6.040;2023-07-13T12:14:40;26.70;53.30
74359;DHT22;62792;46.236;6.040;2023-07-13T12:19:44;27.10;52.80
74359;DHT22;62792;46.236;6.040;2023-07-13T12:24:48;26.40;52.80
74359;DHT22;62792;46.236;6.040;2023-07-13T12:29:51;26.70;51.40
74359;DHT22;62792;46.236;6.040;2023-07-13T12:35:12;27.30;50.70
74359;DHT22;62792;46.236;6.040;2023-07-13T12:40:17;27.20;50.90
74359;DHT22;62792;46.236;6.040;2023-07-13T12:45:24;27.00;51.30
74359;DHT22;62792;46.236;6.040;2023-07-13T12:50:38;26.70;51.60
74359;DHT22;62792;46.236;6.040;2023-07-13T12:55:44;26.70;51.00
74359;DHT22;62792;46.236;6.040;2023-07-13T13:00:50;26.80;51.20
74359;DHT22;62792;46.236;6.040;2023-07-13T13:05:59;27.10;49.70
74359;DHT22;62792;46.236;6.040;2023-07-13T13:11:04;27.30;49.80
74359;DHT22;62792;46.236;6.040;2023-07-13T13:16:09;27.50;49.90
74359;DHT22;62792;46.236;6.040;2023-07-13T13:21:14;27.60;49.60
74359;DHT22;62792;46.236;6.040;2023-07-13T13:26:18;26.90;50.70
74359;DHT22;62792;46.236;6.040;2023-07-13T13:31:22;27.10;49.60
74359;DHT22;62792;46.236;6.040;2023-07-13T13:36:26;26.90;50.60
74359;DHT22;62792;46.236;6.040;2023-07-13T13:41:29;27.10;49.80
74359;DHT22;62792;46.236;6.040;2023-07-13T13:46:32;26.80;49.50
74359;DHT22;62792;46.236;6.040;2023-07-13T13:51:36;26.70;49.80
74359;DHT22;62792;46.236;6.040;2023-07-13T13:56:41;27.60;48.10
74359;DHT22;62792;46.236;6.040;2023-07-13T14:01:45;27.90;47.10
74359;DHT22;62792;46.236;6.040;2023-07-13T14:06:51;28.20;47.80
74359;DHT22;62792;46.236;6.040;2023-07-13T14:11:54;27.60;49.20
74359;DHT22;62792;46.236;6.040;2023-07-13T14:16:58;28.10;47.50
74359;DHT22;62792;46.236;6.040;2023-07-13T14:22:03;27.70;48.10
74359;DHT22;62792;46.236;6.040;2023-07-13T14:27:07;27.40;48.70
74359;DHT22;62792;46.236;6.040;2023-07-13T14:32:11;27.80;48.90
74359;DHT22;62792;46.236;6.040;2023-07-13T14:37:15;27.50;48.20
74359;DHT22;62792;46.236;6.040;2023-07-13T14:42:19;27.60;47.90
74359;DHT22;62792;46.236;6.040;2023-07-13T14:47:22;28.70;45.60
74359;DHT22;62792;46.236;6.040;2023-07-13T14:52:26;28.50;45.60
74359;DHT22;62792;46.236;6.040;2023-07-13T14:57:29;28.90;45.10
74359;DHT22;62792;46.236;6.040;2023-07-13T15:02:33;28.90;45.20
74359;DHT22;62792;46.236;6.040;2023-07-13T15:07:38;29.30;43.70
74359;DHT22;62792;46.236;6.040;2023-07-13T15:12:41;27.90;46.40
74359;DHT22;62792;46.236;6.040;2023-07-13T15:17:44;29.20;43.40
74359;DHT22;62792;46.236;6.040;2023-07-13T15:22:51;30.20;42.50
74359;DHT22;62792;46.236;6.040;2023-07-13T15:27:54;30.50;42.10
74359;DHT22;62792;46.236;6.040;2023-07-13T15:33:00;30.40;42.20
74359;DHT22;62792;46.236;6.040;2023-07-13T15:38:15;30.40;42.10
74359;DHT22;62792;46.236;6.040;2023-07-13T15:43:19;30.90;41.30
74359;DHT22;62792;46.236;6.040;2023-07-13T15:48:23;31.30;40.90
74359;DHT22;62792;46.236;6.040;2023-07-13T15:53:30;31.40;40.10
74359;DHT22;62792;46.236;6.040;2023-07-13T15:58:35;31.40;40.30
74359;DHT22;62792;46.236;6.040;2023-07-13T16:03:40;31.10;40.30
74359;DHT22;62792;46.236;6.040;2023-07-13T16:08:44;31.10;40.60
74359;DHT22;62792;46.236;6.040;2023-07-13T16:13:48;31.20;40.20
74359;DHT22;62792;46.236;6.040;2023-07-13T16:18:57;31.50;40.20
74359;DHT22;62792;46.236;6.040;2023-07-13T16:24:02;31.60;40.00
74359;DHT22;62792;46.236;6.040;2023-07-13T16:29:10;31.70;39.80
74359;DHT22;62792;46.236;6.040;2023-07-13T16:34:14;31.70;39.70
74359;DHT22;62792;46.236;6.040;2023-07-13T16:39:20;31.70;39.80
74359;DHT22;62792;46.236;6.040;2023-07-13T16:44:25;31.70;39.50
74359;DHT22;62792;46.236;6.040;2023-07-13T16:49:31;31.90;38.70
74359;DHT22;62792;46.236;6.040;2023-07-13T16:54:38;31.90;38.40
74359;DHT22;62792;46.236;6.040;2023-07-13T16:59:44;31.90;38.50
74359;DHT22;62792;46.236;6.040;2023-07-13T17:04:47;32.00;38.50
74359;DHT22;62792;46.236;6.040;2023-07-13T17:09:52;32.00;38.30
74359;DHT22;62792;46.236;6.040;2023-07-13T17:14:55;32.10;38.60
74359;DHT22;62792;46.236;6.040;2023-07-13T17:19:58;32.20;38.40
74359;DHT22;62792;46.236;6.040;2023-07-13T17:25:04;32.10;38.50
74359;DHT22;62792;46.236;6.040;2023-07-13T17:30:14;32.20;38.20
74359;DHT22;62792;46.236;6.040;2023-07-13T17:35:22;32.10;38.20
74359;DHT22;62792;46.236;6.040;2023-07-13T17:40:28;32.20;38.10
74359;DHT22;62792;46.236;6.040;2023-07-13T17:45:34;31.90;38.40
74359;DHT22;62792;46.236;6.040;2023-07-13T17:50:38;31.90;38.70
74359;DHT22;62792;46.236;6.040;2023-07-13T17:55:47;32.00;38.50
74359;DHT22;62792;46.236;6.040;2023-07-13T18:00:50;32.00;38.60
74359;DHT22;62792;46.236;6.040;2023-07-13T18:05:56;32.10;38.30
74359;DHT22;62792;46.236;6.040;2023-07-13T18:11:00;32.00;38.50
74359;DHT22;62792;46.236;6.040;2023-07-13T18:16:04;31.70;39.40
74359;DHT22;62792;46.236;6.040;2023-07-13T18:21:07;31.50;39.70
74359;DHT22;62792;46.236;6.040;2023-07-13T18:26:12;31.50;40.00
74359;DHT22;62792;46.236;6.040;2023-07-13T18:31:18;31.00;40.60
74359;DHT22;62792;46.236;6.040;2023-07-13T18:36:22;31.00;40.40
74359;DHT22;62792;46.236;6.040;2023-07-13T18:41:26;31.20;40.30
74359;DHT22;62792;46.236;6.040;2023-07-13T18:46:30;30.90;40.50
74359;DHT22;62792;46.236;6.040;2023-07-13T18:51:35;30.80;40.80
74359;DHT22;62792;46.236;6.040;2023-07-13T18:56:40;30.90;40.60
74359;DHT22;62792;46.236;6.040;2023-07-13T19:01:42;30.50;41.30
74359;DHT22;62792;46.236;6.040;2023-07-13T19:06:46;30.60;41.10
74359;DHT22;62792;46.236;6.040;2023-07-13T19:11:52;30.20;41.40
74359;DHT22;62792;46.236;6.040;2023-07-13T19:16:55;30.40;41.60
74359;DHT22;62792;46.236;6.040;2023-07-13T19:21:58;30.10;42.00
74359;DHT22;62792;46.236;6.040;2023-07-13T19:27:04;30.20;42.00
74359;DHT22;62792;46.236;6.040;2023-07-13T19:32:12;30.00;42.60
74359;DHT22;62792;46.236;6.040;2023-07-13T19:37:17;30.20;42.90
74359;DHT22;62792;46.236;6.040;2023-07-13T19:42:24;30.00;43.30
74359;DHT22;62792;46.236;6.040;2023-07-13T19:47:28;29.60;43.20
74359;DHT22;62792;46.236;6.040;2023-07-13T19:52:32;29.50;43.00
74359;DHT22;62792;46.236;6.040;2023-07-13T19:57:36;29.60;42.40
74359;DHT22;62792;46.236;6.040;2023-07-13T20:02:39;29.40;42.60
74359;DHT22;62792;46.236;6.040;2023-07-13T20:07:43;29.10;42.60
74359;DHT22;62792;46.236;6.040;2023-07-13T20:12:51;29.20;42.30
74359;DHT22;62792;46.236;6.040;2023-07-13T20:17:55;29.00;43.10
74359;DHT22;62792;46.236;6.040;2023-07-13T20:22:59;29.20;42.30
74359;DHT22;62792;46.236;6.040;2023-07-13T20:28:04;29.20;42.40
74359;DHT22;62792;46.236;6.040;2023-07-13T20:33:11;29.10;43.70
74359;DHT22;62792;46.236;6.040;2023-07-13T20:38:18;28.80;44.00
74359;DHT22;62792;46.236;6.040;2023-07-13T20:43:23;28.70;43.80
74359;DHT22;62792;46.236;6.040;2023-07-13T20:48:27;28.70;44.60
74359;DHT22;62792;46.236;6.040;2023-07-13T20:53:31;28.60;44.90
74359;DHT22;62792;46.236;6.040;2023-07-13T20:58:35;28.10;46.50
74359;DHT22;62792;46.236;6.040;2023-07-13T21:03:38;28.30;46.50
74359;DHT22;62792;46.236;6.040;2023-07-13T21:08:42;28.10;47.00
74359;DHT22;62792;46.236;6.040;2023-07-13T21:13:46;28.10;46.70
74359;DHT22;62792;46.236;6.040;2023-07-13T21:18:50;28.20;46.70
74359;DHT22;62792;46.236;6.040;2023-07-13T21:23:54;28.70;45.80
74359;DHT22;62792;46.236;6.040;2023-07-13T21:28:58;28.40;46.90
74359;DHT22;62792;46.236;6.040;2023-07-13T21:34:04;28.30;46.80
74359;DHT22;62792;46.236;6.040;2023-07-13T21:39:10;28.40;46.40
74359;DHT22;62792;46.236;6.040;2023-07-13T21:44:20;28.10;46.90
74359;DHT22;62792;46.236;6.040;2023-07-13T21:49:26;28.40;46.40
74359;DHT22;62792;46.236;6.040;2023-07-13T21:54:28;28.00;47.20
74359;DHT22;62792;46.236;6.040;2023-07-13T21:59:33;26.90;49.20
74359;DHT22;62792;46.236;6.040;2023-07-13T22:04:37;26.80;50.40
74359;DHT22;62792;46.236;6.040;2023-07-13T22:09:40;26.70;51.20
74359;DHT22;62792;46.236;6.040;2023-07-13T22:14:44;26.70;51.50
74359;DHT22;62792;46.236;6.040;2023-07-13T22:19:47;26.50;52.00
74359;DHT22;62792;46.236;6.040;2023-07-13T22:24:53;26.50;51.90
74359;DHT22;62792;46.236;6.040;2023-07-13T22:29:57;26.20;53.20
74359;DHT22;62792;46.236;6.040;2023-07-13T22:35:00;26.10;53.50
74359;DHT22;62792;46.236;6.040;2023-07-13T22:40:08;26.40;52.00
74359;DHT22;62792;46.236;6.040;2023-07-13T22:45:14;26.40;51.90
74359;DHT22;62792;46.236;6.040;2023-07-13T22:50:17;26.20;52.90
74359;DHT22;62792;46.236;6.040;2023-07-13T22:55:20;26.00;53.20
74359;DHT22;62792;46.236;6.040;2023-07-13T23:00:24;26.30;52.50
74359;DHT22;62792;46.236;6.040;2023-07-13T23:05:27;26.20;52.60
74359;DHT22;62792;46.236;6.040;2023-07-13T23:10:30;26.10;52.50
74359;DHT22;62792;46.236;6.040;2023-07-13T23:15:34;26.10;52.10
74359;DHT22;62792;46.236;6.040;2023-07-13T23:20:37;26.00;52.10
74359;DHT22;62792;46.236;6.040;2023-07-13T23:25:40;25.70;52.30
74359;DHT22;62792;46.236;6.040;2023-07-13T23:30:46;25.80;52.20
74359;DHT22;62792;46.236;6.040;2023-07-13T23:35:49;25.80;52.50
74359;DHT22;62792;46.236;6.040;2023-07-13T23:40:56;25.60;53.00
74359;DHT22;62792;46.236;6.040;2023-07-13T23:46:01;25.80;53.20
74359;DHT22;62792;46.236;6.040;2023-07-13T23:51:04;25.50;54.20
74359;DHT22;62792;46.236;6.040;2023-07-13T23:56:10;25.60;54.60
